createdAt,value
2018-02-04T00:01:36.367Z,94663.45
2018-02-04T00:04:05.393Z,94663.32
2018-02-04T00:06:35.170Z,94665.00
2018-02-04T00:09:06.126Z,94666.08
2018-02-04T00:11:35.849Z,94670.36
2018-02-04T00:14:08.042Z,94664.06
2018-02-04T00:16:37.404Z,94670.34
2018-02-04T00:21:44.659Z,94666.54
2018-02-04T00:24:14.506Z,94669.19
2018-02-04T00:26:56.544Z,94670.45
2018-02-04T00:29:38.127Z,94671.93
2018-02-04T00:32:08.753Z,94679.13
2018-02-04T00:34:42.835Z,94676.41
2018-02-04T00:37:15.179Z,94682.19
2018-02-04T00:42:46.934Z,94678.30
2018-02-04T00:45:15.978Z,94685.73
2018-02-04T00:50:21.146Z,94685.09
2018-02-04T00:55:46.167Z,94682.92
2018-02-04T00:58:16.097Z,94687.49
2018-02-04T01:00:59.828Z,94684.36
2018-02-04T01:03:28.870Z,94691.92
2018-02-04T01:05:58.802Z,94694.00
2018-02-04T01:08:28.746Z,94697.77
2018-02-04T01:10:58.713Z,94700.30
2018-02-04T01:13:27.763Z,94700.47
2018-02-04T01:16:02.369Z,94701.09
2018-02-04T01:21:07.561Z,94703.45
2018-02-04T01:23:40.418Z,94706.63
2018-02-04T01:26:09.474Z,94709.11
2018-02-04T01:31:13.790Z,94715.48
2018-02-04T01:33:47.629Z,94721.67
2018-02-04T01:36:16.673Z,94710.17
2018-02-04T01:41:59.193Z,94712.47
2018-02-04T01:47:06.422Z,94718.09
2018-02-04T01:52:10.757Z,94714.60
2018-02-04T01:54:41.705Z,94721.13
2018-02-04T01:57:10.757Z,94723.39
2018-02-04T02:02:16.975Z,94723.02
2018-02-04T02:04:49.816Z,94725.27
2018-02-04T02:07:18.872Z,94719.13
2018-02-04T02:10:03.326Z,94721.00
2018-02-04T02:12:32.403Z,94720.16
2018-02-04T02:15:15.345Z,94723.16
2018-02-04T02:17:47.520Z,94726.63
2018-02-04T02:20:16.582Z,94725.65
2018-02-04T02:22:45.661Z,94723.94
2018-02-04T02:25:23.353Z,94727.68
2018-02-04T02:27:56.042Z,94723.75
2018-02-04T02:30:25.085Z,94723.55
2018-02-04T02:32:57.816Z,94719.06
2018-02-04T02:35:26.870Z,94723.79
2018-02-04T02:37:58.522Z,94724.73
2018-02-04T02:40:33.352Z,94730.61
2018-02-04T02:43:16.272Z,94733.78
2018-02-04T02:45:48.490Z,94737.86
2018-02-04T02:48:17.537Z,94736.97
2018-02-04T02:50:55.837Z,94744.13
2018-02-04T02:53:24.900Z,94747.14
2018-02-04T02:56:04.661Z,94749.29
2018-02-04T02:58:33.718Z,94751.55
2018-02-04T03:01:15.223Z,94758.94
2018-02-04T03:06:23.556Z,94762.27
2018-02-04T03:08:54.505Z,94765.17
2018-02-04T03:11:24.479Z,94763.44
2018-02-04T03:16:29.425Z,94765.12
2018-02-04T03:19:02.255Z,94768.92
2018-02-04T03:21:31.606Z,94779.80
2018-02-04T03:24:00.661Z,94774.55
2018-02-04T03:26:29.704Z,94776.73
2018-02-04T03:29:23.417Z,94777.08
2018-02-04T03:31:52.470Z,94781.39
2018-02-04T03:37:00.684Z,94793.40
2018-02-04T03:39:37.711Z,94800.73
2018-02-04T03:42:06.781Z,94798.48
2018-02-04T03:44:35.859Z,94796.55
2018-02-04T03:47:04.897Z,94800.38
2018-02-04T03:52:43.622Z,94798.09
2018-02-04T03:55:19.708Z,94810.56
2018-02-04T03:57:49.701Z,94808.68
2018-02-04T04:00:18.784Z,94816.89
2018-02-04T04:02:50.860Z,94813.19
2018-02-04T04:05:20.826Z,94822.02
2018-02-04T04:07:50.793Z,94824.84
2018-02-04T04:13:03.409Z,94821.80
2018-02-04T04:15:32.463Z,94823.92
2018-02-04T04:18:01.533Z,94827.30
2018-02-04T04:20:30.593Z,94834.05
2018-02-04T04:22:59.651Z,94828.58
2018-02-04T04:28:12.865Z,94835.23
2018-02-04T04:35:53.250Z,94836.91
2018-02-04T04:41:09.963Z,94834.92
2018-02-04T04:43:39.015Z,94837.92
2018-02-04T04:46:12.654Z,94835.17
2018-02-04T04:48:51.739Z,94834.73
2018-02-04T04:53:56.958Z,94838.62
2018-02-04T04:56:29.803Z,94842.73
2018-02-04T04:58:58.867Z,94841.94
2018-02-04T05:01:27.919Z,94844.33
2018-02-04T05:04:05.490Z,94849.03
2018-02-04T05:06:34.812Z,94851.33
2018-02-04T05:09:04.146Z,94855.21
2018-02-04T05:11:33.207Z,94854.67
2018-02-04T05:14:02.274Z,94857.16
2018-02-04T05:16:31.326Z,94860.16
2018-02-04T05:19:13.232Z,94864.98
2018-02-04T05:24:24.422Z,94870.52
2018-02-04T05:29:32.651Z,94884.00
2018-02-04T05:32:07.201Z,94879.62
2018-02-04T05:34:36.258Z,94885.80
2018-02-04T05:37:09.136Z,94887.98
2018-02-04T05:39:44.997Z,94887.77
2018-02-04T05:42:14.953Z,94893.98
2018-02-04T05:45:01.381Z,94896.88
2018-02-04T05:47:30.434Z,94901.50
2018-02-04T05:52:47.064Z,94908.82
2018-02-04T05:55:16.110Z,94912.78
2018-02-04T05:57:57.961Z,94915.00
2018-02-04T06:00:27.017Z,94926.69
2018-02-04T06:02:59.091Z,94929.94
2018-02-04T06:05:28.142Z,94934.96
2018-02-04T06:11:03.389Z,94946.55
2018-02-04T06:13:32.444Z,94949.66
2018-02-04T06:19:15.490Z,94954.78
2018-02-04T06:24:47.538Z,94966.55
2018-02-04T06:27:16.601Z,94970.61
2018-02-04T06:29:49.223Z,94975.21
2018-02-04T06:32:43.545Z,94973.14
2018-02-04T06:37:48.779Z,94984.69
2018-02-04T06:40:21.622Z,94989.99
2018-02-04T06:42:50.711Z,94992.08
2018-02-04T06:47:56.424Z,95002.59
2018-02-04T06:50:25.481Z,95010.25
2018-02-04T06:55:30.327Z,95019.48
2018-02-04T06:57:59.502Z,95022.41
2018-02-04T07:00:28.556Z,95020.97
2018-02-04T07:02:58.590Z,95027.84
2018-02-04T07:05:27.673Z,95028.27
2018-02-04T07:07:56.727Z,95025.67
2018-02-04T07:10:25.790Z,95027.89
2018-02-04T07:12:56.307Z,95026.23
2018-02-04T07:15:25.372Z,95027.41
2018-02-04T07:17:55.341Z,95027.04
2018-02-04T07:20:24.773Z,95026.42
2018-02-04T07:22:54.877Z,95030.53
2018-02-04T07:25:23.930Z,95034.66
2018-02-04T07:27:52.992Z,95033.89
2018-02-04T07:30:22.037Z,95038.48
2018-02-04T07:32:51.089Z,95046.13
2018-02-04T07:35:20.139Z,95044.92
2018-02-04T07:37:49.194Z,95042.15
2018-02-04T07:40:18.257Z,95044.15
2018-02-04T07:42:47.315Z,95046.82
2018-02-04T07:45:16.372Z,95048.62
2018-02-04T07:47:45.420Z,95049.88
2018-02-04T07:50:14.462Z,95054.50
2018-02-04T07:52:44.472Z,95052.54
2018-02-04T07:55:13.509Z,95056.09
2018-02-04T07:57:42.672Z,95059.16
2018-02-04T08:00:11.708Z,95067.30
2018-02-04T08:02:41.499Z,95068.41
2018-02-04T08:05:10.688Z,95065.23
2018-02-04T08:07:39.742Z,95069.41
2018-02-04T08:10:08.778Z,95074.25
2018-02-04T08:12:37.844Z,95078.05
2018-02-04T08:15:06.861Z,95080.41
2018-02-04T08:17:35.914Z,95087.78
2018-02-04T08:20:04.972Z,95088.97
2018-02-04T08:22:34.006Z,95094.77
2018-02-04T08:25:03.054Z,95099.69
2018-02-04T08:27:32.085Z,95098.62
2018-02-04T08:30:01.137Z,95104.56
2018-02-04T08:32:30.177Z,95107.97
2018-02-04T08:34:59.233Z,95106.80
2018-02-04T08:37:28.274Z,95125.13
2018-02-04T08:39:57.339Z,95117.63
2018-02-04T08:42:26.389Z,95120.80
2018-02-04T08:44:55.445Z,95125.72
2018-02-04T08:47:24.493Z,95125.28
2018-02-04T08:49:53.574Z,95126.55
2018-02-04T08:52:22.660Z,95123.20
2018-02-04T08:54:51.681Z,95132.60
2018-02-04T08:57:20.769Z,95129.71
2018-02-04T08:59:49.829Z,95133.14
2018-02-04T09:02:19.294Z,95134.08
2018-02-04T09:04:48.368Z,95135.61
2018-02-04T09:07:17.397Z,95147.48
2018-02-04T09:09:46.478Z,95146.70
2018-02-04T09:12:23.548Z,95150.88
2018-02-04T09:14:53.577Z,95155.30
2018-02-04T09:17:22.682Z,95157.02
2018-02-04T09:22:26.939Z,95155.88
2018-02-04T09:24:56.168Z,95149.38
2018-02-04T09:27:25.206Z,95157.79
2018-02-04T09:29:54.394Z,95163.08
2018-02-04T09:32:23.512Z,95166.03
2018-02-04T09:34:52.590Z,95161.66
2018-02-04T09:37:21.683Z,95167.30
2018-02-04T09:45:02.352Z,95188.67
2018-02-04T09:47:31.413Z,95187.95
2018-02-04T09:50:00.460Z,95187.09
2018-02-04T09:55:04.749Z,95194.23
2018-02-04T09:57:36.729Z,95195.41
2018-02-04T10:00:05.774Z,95200.16
2018-02-04T10:02:34.813Z,95210.41
2018-02-04T10:05:03.886Z,95207.27
2018-02-04T10:07:32.894Z,95214.45
2018-02-04T10:10:02.035Z,95217.89
2018-02-04T10:12:34.699Z,95217.89
2018-02-04T10:17:42.642Z,95215.76
2018-02-04T10:25:24.519Z,95223.83
2018-02-04T10:30:28.825Z,95216.73
2018-02-04T10:32:57.885Z,95212.45
2018-02-04T10:35:27.304Z,95202.42
2018-02-04T10:37:56.323Z,95211.83
2018-02-04T10:43:02.315Z,95200.75
2018-02-04T10:45:37.224Z,95200.59
2018-02-04T10:48:06.534Z,95200.23
2018-02-04T10:50:35.573Z,95204.38
2018-02-04T10:53:04.615Z,95199.52
2018-02-04T10:55:34.112Z,95203.19
2018-02-04T11:00:39.474Z,95204.05
2018-02-04T11:03:08.529Z,95203.69
2018-02-04T11:05:37.605Z,95203.94
2018-02-04T11:08:06.653Z,95202.45
2018-02-04T11:10:35.697Z,95214.06
2018-02-04T11:13:04.750Z,95218.30
2018-02-04T11:15:33.801Z,95231.36
2018-02-04T11:20:38.550Z,95224.08
2018-02-04T11:23:07.606Z,95225.72
2018-02-04T11:25:36.630Z,95228.80
2018-02-04T11:28:05.706Z,95234.24
2018-02-04T11:30:34.721Z,95234.86
2018-02-04T11:33:03.766Z,95236.03
2018-02-04T11:35:32.801Z,95236.64
2018-02-04T11:38:01.850Z,95228.48
2018-02-04T11:40:30.878Z,95226.44
2018-02-04T11:42:59.926Z,95230.27
2018-02-04T11:45:28.958Z,95227.97
2018-02-04T11:47:58.036Z,95222.40
2018-02-04T11:53:03.460Z,95209.02
2018-02-04T11:55:32.517Z,95206.14
2018-02-04T11:58:01.582Z,95209.48
2018-02-04T12:00:30.627Z,95212.38
2018-02-04T12:02:59.667Z,95213.69
2018-02-04T12:05:28.738Z,95212.96
2018-02-04T12:10:33.518Z,95224.29
2018-02-04T12:13:02.732Z,95229.27
2018-02-04T12:15:31.813Z,95234.27
2018-02-04T12:18:00.998Z,95237.51
2018-02-04T12:20:30.030Z,95243.56
2018-02-04T12:25:34.274Z,95250.34
2018-02-04T12:28:03.318Z,95254.26
2018-02-04T12:30:37.322Z,95249.83
2018-02-04T12:33:06.337Z,95252.78
2018-02-04T12:35:35.396Z,95252.67
2018-02-04T12:40:40.657Z,95254.76
2018-02-04T12:43:09.707Z,95254.12
2018-02-04T12:45:38.730Z,95255.03
2018-02-04T12:48:07.780Z,95247.26
2018-02-04T12:50:36.838Z,95248.11
2018-02-04T12:53:05.885Z,95246.16
2018-02-04T12:55:34.934Z,95251.38
2018-02-04T12:58:03.968Z,95252.76
2018-02-04T13:00:33.013Z,95249.81
2018-02-04T13:03:02.059Z,95248.59
2018-02-04T13:05:31.094Z,95249.15
2018-02-04T13:08:00.132Z,95252.85
2018-02-04T13:10:29.188Z,95253.44
2018-02-04T13:12:58.700Z,95264.11
2018-02-04T13:15:27.778Z,95264.12
2018-02-04T13:17:56.834Z,95267.90
2018-02-04T13:20:26.827Z,95276.41
2018-02-04T13:22:55.861Z,95278.28
2018-02-04T13:25:24.953Z,95278.42
2018-02-04T13:30:29.189Z,95284.03
2018-02-04T13:32:58.305Z,95282.66
2018-02-04T13:35:27.329Z,95284.96
2018-02-04T13:37:56.365Z,95285.38
2018-02-04T13:40:25.498Z,95286.73
2018-02-04T13:45:29.729Z,95291.55
2018-02-04T13:50:35.093Z,95292.61
2018-02-04T13:53:04.109Z,95295.48
2018-02-04T13:55:35.511Z,95297.12
2018-02-04T13:58:04.810Z,95295.72
2018-02-04T14:00:35.047Z,95300.63
2018-02-04T14:03:04.053Z,95299.69
2018-02-04T14:05:33.298Z,95306.82
2018-02-04T14:08:02.323Z,95310.68
2018-02-04T14:10:31.391Z,95306.75
2018-02-04T14:15:36.651Z,95316.13
2018-02-04T14:20:40.861Z,95315.66
2018-02-04T14:23:09.942Z,95319.86
2018-02-04T14:25:38.985Z,95320.02
2018-02-04T14:33:18.438Z,95331.55
2018-02-04T14:35:47.469Z,95343.38
2018-02-04T14:38:16.498Z,95342.34
2018-02-04T14:40:45.528Z,95343.95
2018-02-04T14:43:14.572Z,95346.50
2018-02-04T14:45:43.655Z,95346.56
2018-02-04T14:48:13.629Z,95345.66
2018-02-04T14:50:42.670Z,95351.45
2018-02-04T14:53:15.452Z,95355.20
2018-02-04T14:55:47.935Z,95358.12
2018-02-04T14:58:20.990Z,95359.01
2018-02-04T15:00:54.359Z,95364.69
2018-02-04T15:03:26.687Z,95361.19
2018-02-04T15:05:59.707Z,95357.42
2018-02-04T15:08:28.776Z,95352.91
2018-02-04T15:10:57.840Z,95363.50
2018-02-04T15:13:26.876Z,95357.65
2018-02-04T15:15:55.906Z,95362.48
2018-02-04T15:18:24.948Z,95362.54
2018-02-04T15:21:00.785Z,95367.99
2018-02-04T15:26:07.084Z,95364.55
2018-02-04T15:28:36.118Z,95359.27
2018-02-04T15:31:08.170Z,95359.55
2018-02-04T15:36:12.419Z,95376.28
2018-02-04T15:41:16.633Z,95384.39
2018-02-04T15:43:45.669Z,95384.59
2018-02-04T15:46:14.718Z,95385.30
2018-02-04T15:48:43.749Z,95388.85
2018-02-04T15:51:12.813Z,95390.56
2018-02-04T15:53:41.858Z,95397.61
2018-02-04T15:56:10.894Z,95400.05
2018-02-04T15:58:39.930Z,95404.40
2018-02-04T16:03:44.030Z,95410.56
2018-02-04T16:06:13.081Z,95414.92
2018-02-04T16:08:42.743Z,95420.33
2018-02-04T16:11:11.784Z,95422.50
2018-02-04T16:13:40.994Z,95426.88
2018-02-04T16:16:10.089Z,95425.29
2018-02-04T16:18:39.231Z,95429.98
2018-02-04T16:21:08.249Z,95431.95
2018-02-04T16:23:37.302Z,95431.51
2018-02-04T16:26:06.417Z,95435.84
2018-02-04T16:28:35.454Z,95437.95
2018-02-04T16:31:04.566Z,95435.72
2018-02-04T16:33:33.967Z,95441.20
2018-02-04T16:36:25.774Z,95442.17
2018-02-04T16:38:54.896Z,95452.28
2018-02-04T16:41:23.942Z,95450.80
2018-02-04T16:43:53.362Z,95456.89
2018-02-04T16:46:22.529Z,95455.97
2018-02-04T16:48:51.598Z,95457.34
2018-02-04T16:51:20.661Z,95456.20
2018-02-04T16:53:49.721Z,95459.14
2018-02-04T16:56:18.760Z,95464.63
2018-02-04T16:58:47.816Z,95465.68
2018-02-04T17:01:16.925Z,95466.67
2018-02-04T17:03:45.970Z,95471.86
2018-02-04T17:06:15.009Z,95467.93
2018-02-04T17:08:44.091Z,95472.13
2018-02-04T17:11:13.157Z,95475.25
2018-02-04T17:13:42.243Z,95482.41
2018-02-04T17:16:12.265Z,95479.02
2018-02-04T17:18:41.339Z,95481.27
2018-02-04T17:21:10.406Z,95486.95
2018-02-04T17:23:39.496Z,95486.28
2018-02-04T17:26:08.582Z,95495.19
2018-02-04T17:28:37.612Z,95496.37
2018-02-04T17:31:06.678Z,95498.55
2018-02-04T17:33:35.724Z,95497.91
2018-02-04T17:36:04.781Z,95503.42
2018-02-04T17:38:33.845Z,95499.28
2018-02-04T17:41:02.898Z,95503.87
2018-02-04T17:43:31.974Z,95499.02
2018-02-04T17:46:01.025Z,95500.84
2018-02-04T17:48:30.085Z,95506.30
2018-02-04T17:50:59.157Z,95506.20
2018-02-04T17:53:28.200Z,95508.84
2018-02-04T17:55:57.250Z,95513.75
2018-02-04T17:58:26.318Z,95514.76
2018-02-04T18:00:55.558Z,95520.50
2018-02-04T18:03:24.664Z,95525.13
2018-02-04T18:05:53.698Z,95525.06
2018-02-04T18:08:22.774Z,95525.75
2018-02-04T18:10:51.819Z,95523.41
2018-02-04T18:13:20.870Z,95528.72
2018-02-04T18:15:49.949Z,95524.66
2018-02-04T18:20:54.226Z,95530.58
2018-02-04T18:23:23.347Z,95528.95
2018-02-04T18:25:52.444Z,95531.31
2018-02-04T18:28:21.497Z,95533.16
2018-02-04T18:30:50.553Z,95528.73
2018-02-04T18:33:19.628Z,95529.86
2018-02-04T18:35:48.685Z,95527.81
2018-02-04T18:38:17.738Z,95528.66
2018-02-04T18:40:46.793Z,95531.67
2018-02-04T18:45:53.951Z,95532.05
2018-02-04T18:48:23.745Z,95536.71
2018-02-04T18:50:52.801Z,95543.81
2018-02-04T18:53:21.873Z,95548.44
2018-02-04T18:55:51.169Z,95546.64
2018-02-04T18:58:20.245Z,95551.85
2018-02-04T19:00:49.304Z,95547.81
2018-02-04T19:03:18.447Z,95552.15
2018-02-04T19:05:47.506Z,95548.53
2018-02-04T19:08:16.581Z,95547.08
2018-02-04T19:10:45.653Z,95545.34
2018-02-04T19:13:15.612Z,95551.36
2018-02-04T19:15:44.667Z,95552.45
2018-02-04T19:18:13.726Z,95563.95
2018-02-04T19:20:42.781Z,95562.47
2018-02-04T19:23:11.897Z,95567.94
2018-02-04T19:25:47.193Z,95567.06
2018-02-04T19:28:16.212Z,95571.22
2018-02-04T19:30:45.286Z,95567.99
2018-02-04T19:33:14.339Z,95571.20
2018-02-04T19:35:43.400Z,95576.08
2018-02-04T19:38:12.446Z,95572.25
2018-02-04T19:40:41.513Z,95576.92
2018-02-04T19:43:10.556Z,95574.45
2018-02-04T19:45:39.717Z,95575.81
2018-02-04T19:48:12.804Z,95572.41
2018-02-04T19:50:43.151Z,95570.73
2018-02-04T19:53:12.213Z,95572.87
2018-02-04T19:55:41.275Z,95575.08
2018-02-04T19:58:10.355Z,95577.00
2018-02-04T20:00:39.416Z,95572.04
2018-02-04T20:03:08.482Z,95571.45
2018-02-04T20:05:37.599Z,95574.11
2018-02-04T20:08:12.614Z,95573.34
2018-02-04T20:10:42.163Z,95571.19
2018-02-04T20:13:11.242Z,95576.86
2018-02-04T20:15:40.359Z,95577.91
2018-02-04T20:18:10.533Z,95578.85
2018-02-04T20:20:39.849Z,95578.66
2018-02-04T20:23:09.117Z,95581.63
2018-02-04T20:25:38.426Z,95586.48
2018-02-04T20:28:08.730Z,95584.72
2018-02-04T20:30:37.793Z,95583.32
2018-02-04T20:33:21.260Z,95584.77
2018-02-04T20:35:50.329Z,95591.16
2018-02-04T20:38:20.378Z,95597.83
2018-02-04T20:40:49.429Z,95602.55
2018-02-04T20:43:18.499Z,95602.73
2018-02-04T20:45:47.576Z,95604.86
2018-02-04T20:48:16.607Z,95609.05
2018-02-04T20:50:45.661Z,95609.09
2018-02-04T20:53:14.719Z,95608.09
2018-02-04T20:55:43.768Z,95610.98
2018-02-04T20:58:12.837Z,95616.55
2018-02-04T21:00:41.894Z,95625.81
2018-02-04T21:03:10.952Z,95621.64
2018-02-04T21:05:40.010Z,95624.53
2018-02-04T21:08:09.061Z,95625.95
2018-02-04T21:10:38.140Z,95624.90
2018-02-04T21:13:08.166Z,95621.86
2018-02-04T21:15:37.230Z,95624.54
2018-02-04T21:18:06.284Z,95617.35
2018-02-04T21:20:35.338Z,95621.85
2018-02-04T21:23:04.390Z,95619.19
2018-02-04T21:25:33.487Z,95620.89
2018-02-04T21:28:02.528Z,95620.50
2018-02-04T21:30:31.590Z,95622.52
2018-02-04T21:33:00.646Z,95623.08
2018-02-04T21:35:31.670Z,95624.77
2018-02-04T21:38:00.723Z,95631.53
2018-02-04T21:40:29.798Z,95628.45
2018-02-04T21:42:58.854Z,95629.15
2018-02-04T21:45:28.809Z,95627.83
2018-02-04T21:47:57.865Z,95632.11
2018-02-04T21:50:26.935Z,95631.17
2018-02-04T21:52:56.187Z,95635.40
2018-02-04T21:55:25.470Z,95637.54
2018-02-04T22:00:29.764Z,95635.28
2018-02-04T22:02:58.859Z,95641.55
2018-02-04T22:05:27.940Z,95641.46
2018-02-04T22:07:56.984Z,95644.23
2018-02-04T22:10:26.035Z,95650.00
2018-02-04T22:12:55.098Z,95648.43
2018-02-04T22:15:24.156Z,95652.55
2018-02-04T22:17:53.268Z,95656.64
2018-02-04T22:20:22.330Z,95658.95
2018-02-04T22:22:51.409Z,95662.25
2018-02-04T22:25:20.461Z,95663.81
2018-02-04T22:27:49.854Z,95669.31
2018-02-04T22:30:19.297Z,95663.99
2018-02-04T22:32:48.363Z,95666.64
2018-02-04T22:35:17.742Z,95666.98
2018-02-04T22:37:46.784Z,95671.97
2018-02-04T22:40:15.830Z,95673.09
2018-02-04T22:42:44.888Z,95671.63
2018-02-04T22:45:13.939Z,95673.83
2018-02-04T22:47:42.984Z,95675.21
2018-02-04T22:50:12.030Z,95675.16
2018-02-04T22:52:41.081Z,95678.44
2018-02-04T22:55:10.133Z,95681.25
2018-02-04T22:57:39.178Z,95683.98
2018-02-04T23:00:08.235Z,95689.56
2018-02-04T23:02:37.292Z,95686.30
2018-02-04T23:05:06.354Z,95683.69
2018-02-04T23:07:35.400Z,95680.60
2018-02-04T23:10:04.464Z,95678.61
2018-02-04T23:12:33.523Z,95679.88
2018-02-04T23:15:02.573Z,95683.20
2018-02-04T23:17:31.650Z,95683.20
2018-02-04T23:20:00.780Z,95680.64
2018-02-04T23:22:29.777Z,95676.87
2018-02-04T23:24:58.837Z,95679.87
2018-02-04T23:27:27.895Z,95678.48
2018-02-04T23:29:56.936Z,95686.94
2018-02-04T23:32:26.015Z,95680.83
2018-02-04T23:34:55.107Z,95680.66
2018-02-04T23:37:24.187Z,95680.30
2018-02-04T23:39:53.241Z,95683.80
2018-02-04T23:42:22.299Z,95681.45
2018-02-04T23:44:51.358Z,95684.62
2018-02-04T23:47:20.405Z,95678.95
2018-02-04T23:49:49.491Z,95683.76
2018-02-04T23:52:18.522Z,95679.48
2018-02-04T23:54:47.589Z,95676.13
2018-02-04T23:57:16.669Z,95678.50
2018-02-04T23:59:45.726Z,95677.32
